Terminal Aerodrome Forecast
Issued by NWS

Home | Current Version | Previous Version | Text Only | Print | Product List | Glossary On
Versions: 1 2 3 4 5 6 7 8 9 10 11 12 13 14 15 16 17 18 19 20 21 22 23 24 25 26 27 28 29 30 31 32 33 34
000
FTUS45 KBOU 242334
TAFBJC
TAF
KBJC 242334Z 2500/2524 04011G18KT P6SM VCSH FEW090 BKN120
     FM250030 08010KT P6SM VCSH FEW090 SCT120 BKN180
     FM250200 25007KT P6SM FEW090 SCT140 BKN220
     FM250500 30007KT P6SM FEW120 SCT220
     FM251600 06008KT P6SM FEW100 SCT220
     FM251900 16008KT P6SM FEW080 SCT150=

USA.gov is the U.S. government's official web portal to all federal, state and local government web resources and services.